Time;durP1;ratioP1;P1;durP2;ratioP2;P2;SDS_P1;SDS_P2;PMS_P1;PMS_P2;Temp;Humidity;BMP_temperature;BMP_pressure;BME280_temperature;BME280_humidity;BME280_pressure;Samples;Min_cycle;Max_cycle;Signal;HPM_P1;HPM_P2
2020/12/24 00:01:17;;;;;;;2.17;1.10;;;12.50;78.60;;;;;;5043366;28;20220;-69
2020/12/24 00:03:43;;;;;;;2.65;1.30;;;12.50;78.60;;;;;;5045738;28;20092;-69
2020/12/24 00:06:08;;;;;;;1.67;1.08;;;12.40;78.80;;;;;;5044102;28;20332;-69
2020/12/24 00:08:34;;;;;;;2.47;1.35;;;12.40;78.70;;;;;;5043726;28;20048;-69
2020/12/24 00:10:59;;;;;;;2.05;1.13;;;12.40;78.70;;;;;;5042617;28;20225;-69
2020/12/24 00:13:25;;;;;;;2.22;1.30;;;12.30;79.00;;;;;;5043570;28;20033;-69
2020/12/24 00:15:50;;;;;;;2.83;1.10;;;12.30;78.60;;;;;;5045529;28;20072;-68
2020/12/24 00:18:16;;;;;;;1.35;0.93;;;12.30;78.50;;;;;;5044108;28;20052;-69
2020/12/24 00:20:42;;;;;;;1.90;1.02;;;12.30;78.60;;;;;;5043943;28;20030;-68
2020/12/24 00:23:07;;;;;;;1.48;1.10;;;12.20;78.70;;;;;;5042423;28;20325;-68
2020/12/24 00:25:33;;;;;;;3.17;1.13;;;12.20;78.90;;;;;;5043662;28;20033;-68
2020/12/24 00:27:59;;;;;;;1.98;0.90;;;12.20;78.60;;;;;;5043471;28;20270;-68
2020/12/24 00:30:24;;;;;;;1.70;1.00;;;12.20;79.00;;;;;;5044947;28;20052;-68
2020/12/24 00:32:50;;;;;;;2.42;1.10;;;12.10;79.30;;;;;;5043749;28;20112;-69
2020/12/24 00:35:15;;;;;;;2.08;0.80;;;12.10;79.20;;;;;;5043344;28;20340;-68
2020/12/24 00:37:41;;;;;;;1.60;1.10;;;12.00;79.70;;;;;;5043339;28;20041;-68
2020/12/24 00:40:06;;;;;;;1.73;1.13;;;12.10;79.20;;;;;;5043435;28;20029;-68
2020/12/24 00:42:32;;;;;;;2.20;1.10;;;12.10;79.20;;;;;;5044757;28;20037;-68
2020/12/24 00:44:57;;;;;;;1.70;0.90;;;12.10;79.40;;;;;;5043599;28;20209;-68
2020/12/24 00:47:23;;;;;;;1.27;0.95;;;12.00;79.50;;;;;;5043419;28;20033;-68
2020/12/24 00:49:48;;;;;;;2.40;1.38;;;12.00;79.40;;;;;;5043159;28;20038;-68
2020/12/24 00:52:14;;;;;;;2.08;1.10;;;11.90;80.10;;;;;;5043276;28;20055;-68
2020/12/24 00:54:40;;;;;;;2.38;1.00;;;11.60;81.20;;;;;;5045049;28;20030;-68
2020/12/24 00:57:05;;;;;;;1.48;1.00;;;11.70;80.90;;;;;;5042869;28;20057;-68
2020/12/24 00:59:31;;;;;;;1.80;1.20;;;11.80;80.70;;;;;;5042811;28;20037;-68
2020/12/24 01:01:57;;;;;;;2.00;1.10;;;11.80;80.20;;;;;;5042750;28;20030;-68
2020/12/24 01:04:22;;;;;;;1.88;1.10;;;11.80;80.20;;;;;;5043002;28;20045;-68
2020/12/24 01:06:48;;;;;;;2.22;1.15;;;11.80;80.10;;;;;;5044343;28;20029;-68
2020/12/24 01:09:13;;;;;;;2.40;1.13;;;11.80;80.20;;;;;;5024505;28;20038;-68
2020/12/24 01:11:39;;;;;;;1.90;1.10;;;11.80;79.80;;;;;;5022991;28;20046;-68
2020/12/24 01:14:04;;;;;;;1.88;1.20;;;11.80;79.70;;;;;;5031975;28;20232;-68
2020/12/24 01:16:30;;;;;;;3.60;1.10;;;11.80;79.70;;;;;;5042469;28;20341;-68
2020/12/24 01:18:56;;;;;;;1.85;1.10;;;11.80;79.90;;;;;;5044097;28;20029;-68
2020/12/24 01:21:21;;;;;;;1.90;1.10;;;11.80;80.00;;;;;;5043248;28;20100;-68
2020/12/24 01:23:47;;;;;;;1.83;1.05;;;11.70;80.20;;;;;;5042762;28;20033;-68
2020/12/24 01:26:12;;;;;;;2.45;1.50;;;11.70;80.30;;;;;;5042595;28;20033;-68
2020/12/24 01:28:38;;;;;;;1.83;1.33;;;11.60;80.30;;;;;;5042529;28;20347;-69
2020/12/24 01:31:04;;;;;;;2.40;1.30;;;11.80;79.70;;;;;;5042687;28;20088;-68
2020/12/24 01:33:29;;;;;;;2.50;1.10;;;11.60;80.20;;;;;;5044038;28;20030;-68
2020/12/24 01:35:55;;;;;;;1.90;1.30;;;11.70;80.00;;;;;;5041528;28;20052;-68
2020/12/24 01:38:21;;;;;;;1.95;1.33;;;11.70;80.00;;;;;;5042376;28;20329;-68
2020/12/24 01:40:46;;;;;;;1.80;1.30;;;11.60;80.50;;;;;;5041742;28;20053;-68
2020/12/24 01:43:12;;;;;;;1.90;1.20;;;11.60;80.50;;;;;;5038442;28;20033;-68
2020/12/24 01:45:37;;;;;;;2.08;1.10;;;11.60;80.10;;;;;;5024128;28;20061;-68
2020/12/24 01:48:03;;;;;;;1.90;1.20;;;11.60;80.10;;;;;;5022935;28;20080;-68
2020/12/24 01:50:29;;;;;;;2.03;1.45;;;11.60;80.20;;;;;;5022816;28;20034;-69
2020/12/24 01:52:56;;;;;;;1.92;1.30;;;11.60;80.40;;;;;;5030477;28;20045;-68
2020/12/24 01:55:21;;;;;;;2.17;1.17;;;11.60;80.40;;;;;;5041084;28;20029;-68
2020/12/24 01:57:47;;;;;;;3.05;1.40;;;11.50;80.70;;;;;;5043600;28;20392;-68
2020/12/24 02:00:12;;;;;;;2.50;1.40;;;11.50;80.70;;;;;;5041391;28;20033;-68
2020/12/24 02:02:38;;;;;;;2.35;1.50;;;11.50;81.20;;;;;;5042104;28;20262;-68
2020/12/24 02:05:04;;;;;;;2.65;1.80;;;11.40;81.20;;;;;;5042101;28;20033;-68
2020/12/24 02:07:29;;;;;;;2.60;1.42;;;11.50;81.40;;;;;;5042079;28;20029;-68
2020/12/24 02:09:55;;;;;;;3.13;1.60;;;11.40;81.30;;;;;;5042641;28;20029;-68
2020/12/24 02:12:20;;;;;;;3.28;1.23;;;11.50;81.30;;;;;;5042065;28;20042;-68
2020/12/24 02:14:46;;;;;;;2.63;1.60;;;11.50;81.40;;;;;;5041969;28;20218;-68
2020/12/24 02:17:12;;;;;;;2.25;1.50;;;11.40;81.60;;;;;;5041505;28;20108;-68
2020/12/24 02:19:40;;;;;;;3.42;1.80;;;11.40;81.60;;;;;;5042092;28;20071;-68
2020/12/24 02:22:05;;;;;;;2.08;1.50;;;11.40;81.70;;;;;;5042274;28;20224;-68
2020/12/24 02:24:31;;;;;;;2.28;1.40;;;11.40;81.50;;;;;;5045705;28;20048;-68
2020/12/24 02:26:56;;;;;;;2.47;1.40;;;11.40;81.50;;;;;;5045885;28;20029;-68
2020/12/24 02:29:22;;;;;;;3.00;1.50;;;11.40;81.50;;;;;;5046056;28;20033;-68
2020/12/24 02:31:48;;;;;;;2.67;1.50;;;11.40;81.60;;;;;;5045699;28;20087;-68
2020/12/24 02:34:14;;;;;;;2.50;1.58;;;11.40;81.40;;;;;;5045526;28;20080;-68
2020/12/24 02:36:39;;;;;;;2.28;1.60;;;11.30;82.00;;;;;;5047399;28;20028;-68
2020/12/24 02:39:05;;;;;;;2.90;1.27;;;11.30;82.20;;;;;;5044779;28;20105;-68
2020/12/24 02:41:30;;;;;;;3.20;1.60;;;11.30;81.90;;;;;;5045511;28;20265;-68
2020/12/24 02:43:56;;;;;;;1.70;1.17;;;11.30;82.00;;;;;;5045672;28;20237;-68
2020/12/24 02:46:22;;;;;;;2.55;1.73;;;11.30;82.00;;;;;;5045285;28;20396;-68
2020/12/24 02:48:47;;;;;;;2.55;1.48;;;11.30;81.80;;;;;;5046872;28;20321;-68
2020/12/24 02:51:16;;;;;;;2.45;1.60;;;11.30;82.20;;;;;;5044778;28;20042;-68
2020/12/24 02:53:41;;;;;;;2.50;1.60;;;11.30;82.10;;;;;;5044267;28;20033;-70
2020/12/24 02:56:07;;;;;;;4.25;1.95;;;11.30;81.90;;;;;;5045162;28;20075;-69
2020/12/24 02:58:32;;;;;;;3.42;1.67;;;11.20;82.10;;;;;;5045035;28;20113;-68
2020/12/24 03:00:58;;;;;;;3.78;2.00;;;11.20;82.30;;;;;;5045107;28;20040;-68
2020/12/24 03:03:25;;;;;;;2.72;1.60;;;11.20;82.30;;;;;;5046645;28;20080;-69
2020/12/24 03:05:50;;;;;;;3.30;1.67;;;11.20;82.20;;;;;;5045338;28;20037;-69
2020/12/24 03:08:16;;;;;;;2.40;1.10;;;11.10;82.40;;;;;;5045284;28;20037;-68
2020/12/24 03:10:41;;;;;;;2.30;1.20;;;11.20;82.10;;;;;;5043973;28;20045;-68
2020/12/24 03:13:07;;;;;;;1.60;1.00;;;11.20;81.90;;;;;;5045007;28;20029;-68
2020/12/24 03:15:32;;;;;;;2.13;1.10;;;11.30;81.80;;;;;;5046706;28;20081;-68
2020/12/24 03:17:58;;;;;;;2.40;1.30;;;11.20;81.90;;;;;;5045146;28;20221;-69
2020/12/24 03:20:23;;;;;;;2.03;1.00;;;11.20;81.90;;;;;;5045169;28;20034;-68
2020/12/24 03:22:49;;;;;;;4.00;1.13;;;11.20;82.00;;;;;;5044766;28;20079;-69
2020/12/24 03:25:15;;;;;;;1.50;0.90;;;11.10;82.00;;;;;;5045245;28;20018;-68
2020/12/24 03:27:40;;;;;;;2.97;0.90;;;11.10;82.00;;;;;;5046518;28;20094;-69
2020/12/24 03:30:07;;;;;;;3.00;1.08;;;11.10;81.90;;;;;;5044794;28;20041;-69
2020/12/24 03:32:33;;;;;;;1.23;0.88;;;11.00;82.10;;;;;;5045059;28;20224;-68
2020/12/24 03:34:59;;;;;;;0.80;0.60;;;11.00;82.10;;;;;;5044323;28;20034;-68
2020/12/24 03:37:24;;;;;;;1.23;0.70;;;11.10;81.60;;;;;;5044595;28;20045;-68
2020/12/24 03:39:50;;;;;;;1.70;0.70;;;11.10;81.70;;;;;;5046214;28;20084;-68
2020/12/24 03:42:15;;;;;;;2.33;0.50;;;11.00;81.50;;;;;;5044895;28;20037;-68
2020/12/24 03:44:41;;;;;;;0.77;0.50;;;11.00;81.30;;;;;;5044585;28;20091;-68
2020/12/24 03:47:06;;;;;;;1.65;0.45;;;11.00;81.10;;;;;;5044188;28;20041;-69
2020/12/24 03:49:32;;;;;;;0.50;0.40;;;11.10;81.00;;;;;;5044363;28;20045;-68
2020/12/24 03:51:57;;;;;;;0.88;0.40;;;11.00;81.00;;;;;;5044688;28;20201;-68
2020/12/24 03:54:23;;;;;;;0.35;0.35;;;11.00;80.70;;;;;;5046189;28;20088;-68
2020/12/24 03:56:48;;;;;;;0.55;0.40;;;10.90;80.90;;;;;;5044055;28;20091;-69
2020/12/24 03:59:14;;;;;;;0.50;0.40;;;10.90;80.50;;;;;;5044144;28;20279;-68
2020/12/24 04:01:39;;;;;;;0.30;0.30;;;10.90;80.70;;;;;;5044087;28;20105;-68
2020/12/24 04:04:05;;;;;;;3.53;0.40;;;10.90;80.70;;;;;;5044386;28;20037;-68
2020/12/24 04:06:30;;;;;;;0.30;0.30;;;10.80;80.10;;;;;;5045450;28;20033;-69
2020/12/24 04:08:56;;;;;;;2.28;0.30;;;10.80;80.60;;;;;;5044029;28;20100;-69
2020/12/24 04:11:21;;;;;;;0.40;0.30;;;10.80;80.40;;;;;;5044091;28;20041;-69
2020/12/24 04:13:47;;;;;;;1.95;0.45;;;10.80;80.60;;;;;;5043768;28;20057;-69
2020/12/24 04:16:12;;;;;;;0.28;0.28;;;10.70;80.20;;;;;;5043855;28;20049;-68
2020/12/24 04:18:38;;;;;;;1.25;0.30;;;10.70;80.40;;;;;;5044365;28;20033;-69
2020/12/24 04:21:03;;;;;;;0.30;0.30;;;10.60;79.70;;;;;;5044086;28;20316;-69
2020/12/24 04:23:29;;;;;;;1.65;0.30;;;10.50;79.60;;;;;;5043658;28;20382;-69
2020/12/24 04:25:54;;;;;;;0.38;0.30;;;10.50;80.50;;;;;;5043503;28;20103;-69
2020/12/24 04:28:20;;;;;;;0.30;0.30;;;10.40;80.10;;;;;;5043403;28;20093;-68
2020/12/24 04:30:45;;;;;;;0.75;0.20;;;10.40;80.90;;;;;;5044999;28;20216;-69
2020/12/24 04:33:12;;;;;;;1.85;0.38;;;10.40;81.00;;;;;;5043851;28;20033;-69
2020/12/24 04:35:37;;;;;;;0.20;0.20;;;10.40;80.50;;;;;;5042158;28;20057;-68
2020/12/24 04:38:03;;;;;;;0.75;0.22;;;10.30;80.70;;;;;;5043186;28;20045;-68
2020/12/24 04:40:29;;;;;;;1.40;0.30;;;10.30;80.90;;;;;;5043154;28;20033;-69
2020/12/24 04:42:55;;;;;;;0.47;0.30;;;10.40;80.30;;;;;;5044716;28;20427;-69
2020/12/24 04:45:21;;;;;;;0.85;0.30;;;10.40;79.80;;;;;;5041963;28;20045;-69
2020/12/24 04:47:47;;;;;;;0.40;0.20;;;10.40;80.00;;;;;;5041885;28;20033;-69
2020/12/24 04:50:13;;;;;;;0.55;0.25;;;10.40;80.20;;;;;;5025480;28;20255;-69
2020/12/24 04:52:38;;;;;;;0.30;0.30;;;10.40;79.60;;;;;;5009248;28;20333;-69
2020/12/24 04:55:04;;;;;;;0.20;0.20;;;10.40;79.50;;;;;;5043220;28;20026;-69
2020/12/24 04:57:30;;;;;;;0.38;0.20;;;10.30;80.50;;;;;;5044321;28;20049;-69
2020/12/24 04:59:57;;;;;;;0.52;0.30;;;10.30;80.30;;;;;;5043385;28;20101;-69
2020/12/24 05:02:22;;;;;;;0.90;0.22;;;10.30;80.20;;;;;;5042184;28;20037;-69
2020/12/24 05:04:50;;;;;;;0.30;0.30;;;10.20;79.40;;;;;;5043076;28;20097;-69
2020/12/24 05:07:16;;;;;;;0.50;0.30;;;10.10;80.00;;;;;;5041485;28;20048;-69
2020/12/24 05:09:42;;;;;;;0.20;0.20;;;10.20;80.10;;;;;;5044896;28;20376;-69
2020/12/24 05:12:07;;;;;;;0.45;0.30;;;10.20;79.90;;;;;;5043266;28;20034;-69
2020/12/24 05:14:33;;;;;;;0.82;0.30;;;10.10;79.70;;;;;;5042616;28;20037;-69
2020/12/24 05:17:03;;;;;;;0.40;0.20;;;10.20;79.00;;;;;;5042557;28;20057;-69
2020/12/24 05:19:33;;;;;;;0.55;0.30;;;10.10;79.00;;;;;;5042520;28;20033;-68
2020/12/24 05:22:18;;;;;;;0.90;0.30;;;10.10;78.60;;;;;;5041467;28;20025;-68
2020/12/24 05:24:44;;;;;;;2.25;0.30;;;10.00;79.10;;;;;;5043820;28;20064;-69
2020/12/24 05:27:15;;;;;;;0.30;0.20;;;10.00;79.10;;;;;;5043066;28;20037;-68
2020/12/24 05:29:44;;;;;;;2.88;0.30;;;9.90;79.90;;;;;;5041771;28;20037;-69
2020/12/24 05:32:10;;;;;;;0.55;0.30;;;10.00;79.30;;;;;;5041337;28;20045;-68
2020/12/24 05:34:35;;;;;;;0.40;0.30;;;9.90;79.40;;;;;;5042830;28;20228;-69
2020/12/24 05:37:14;;;;;;;0.98;0.30;;;9.80;78.70;;;;;;5042142;28;20032;-68
2020/12/24 05:39:41;;;;;;;2.63;0.32;;;9.90;78.40;;;;;;5042887;28;20048;-68
2020/12/24 05:42:06;;;;;;;0.38;0.30;;;9.90;78.30;;;;;;5041564;28;20111;-68
2020/12/24 05:44:32;;;;;;;0.30;0.30;;;9.80;78.40;;;;;;5042471;28;20033;-69
2020/12/24 05:46:57;;;;;;;0.75;0.30;;;9.80;77.90;;;;;;5042530;28;20245;-69
2020/12/24 05:49:24;;;;;;;2.10;0.30;;;9.70;78.70;;;;;;5042537;28;20037;-68
2020/12/24 05:51:57;;;;;;;1.20;0.30;;;9.70;78.50;;;;;;5044160;28;20056;-69
2020/12/24 05:54:22;;;;;;;1.25;0.30;;;9.60;76.90;;;;;;5043238;28;20037;-68
2020/12/24 05:56:48;;;;;;;0.40;0.30;;;9.60;78.30;;;;;;5041180;28;20063;-68
2020/12/24 05:59:18;;;;;;;0.38;0.30;;;9.40;77.70;;;;;;5044185;28;20045;-68
2020/12/24 06:02:09;;;;;;;2.15;0.40;;;9.40;77.80;;;;;;5046258;28;20244;-68
2020/12/24 06:04:46;;;;;;;1.83;0.30;;;9.40;78.00;;;;;;5030429;28;20351;-68
2020/12/24 06:07:13;;;;;;;1.90;0.40;;;9.40;78.40;;;;;;5028988;28;20033;-68
2020/12/24 06:09:39;;;;;;;0.68;0.40;;;9.50;77.20;;;;;;5046876;28;20251;-68
2020/12/24 06:12:43;;;;;;;0.40;0.30;;;9.40;77.40;;;;;;5046248;28;20037;-68
2020/12/24 06:15:09;;;;;;;1.15;0.40;;;9.20;76.80;;;;;;5042041;28;20291;-68
2020/12/24 06:17:35;;;;;;;0.28;0.28;;;9.10;77.60;;;;;;5028279;28;20030;-68
2020/12/24 06:20:00;;;;;;;0.40;0.30;;;9.20;77.50;;;;;;5028276;28;20038;-69
2020/12/24 06:22:26;;;;;;;0.30;0.30;;;9.20;77.10;;;;;;5045663;28;20033;-68
2020/12/24 06:24:53;;;;;;;1.58;0.28;;;9.30;77.00;;;;;;5047713;28;20025;-68
2020/12/24 06:27:30;;;;;;;1.10;0.30;;;9.00;76.50;;;;;;5028308;28;20100;-68
2020/12/24 06:30:19;;;;;;;0.98;0.30;;;8.90;77.30;;;;;;5045675;28;20033;-68
2020/12/24 06:32:49;;;;;;;2.17;0.38;;;8.90;77.10;;;;;;5045367;28;20048;-68
2020/12/24 06:35:44;;;;;;;0.35;0.30;;;9.00;77.80;;;;;;5045834;28;20045;-68
2020/12/24 06:38:11;;;;;;;1.13;0.35;;;8.90;76.50;;;;;;5041413;28;20052;-69
2020/12/24 06:40:38;;;;;;;1.05;0.30;;;8.90;77.20;;;;;;5044404;28;20093;-68
2020/12/24 06:43:07;;;;;;;2.67;0.70;;;8.90;76.70;;;;;;5045371;28;20037;-67
2020/12/24 06:45:40;;;;;;;0.82;0.30;;;8.90;77.00;;;;;;5046686;28;20325;-68
2020/12/24 06:48:14;;;;;;;2.58;0.30;;;8.90;77.00;;;;;;5045697;28;20152;-69
2020/12/24 06:50:40;;;;;;;0.68;0.40;;;8.80;75.00;;;;;;5045524;28;20037;-68
2020/12/24 06:53:35;;;;;;;1.25;0.30;;;8.60;74.90;;;;;;5045007;28;20280;-70
2020/12/24 06:56:14;;;;;;;0.73;0.40;;;8.50;76.00;;;;;;5040884;28;20099;-70
2020/12/24 06:59:03;;;;;;;2.28;0.50;;;8.40;75.50;;;;;;5045079;28;20349;-69
2020/12/24 07:01:35;;;;;;;3.53;0.47;;;8.40;76.30;;;;;;5044072;28;20083;-70
2020/12/24 07:04:04;;;;;;;0.98;0.40;;;8.40;76.00;;;;;;5045453;28;20037;-69
2020/12/24 07:06:43;;;;;;;0.45;0.28;;;8.40;76.10;;;;;;5029225;28;20025;-69
2020/12/24 07:09:09;;;;;;;0.50;0.32;;;8.30;75.30;;;;;;5045053;28;20041;-69
2020/12/24 07:11:47;;;;;;;1.15;0.40;;;8.40;76.40;;;;;;5043268;28;20313;-70
2020/12/24 07:14:35;;;;;;;0.75;0.30;;;8.40;76.30;;;;;;5043551;28;20043;-70
2020/12/24 07:17:08;;;;;;;1.17;0.40;;;8.50;75.70;;;;;;5044609;28;20049;-70
2020/12/24 07:19:34;;;;;;;2.58;0.40;;;8.50;75.50;;;;;;5044683;28;20232;-70
2020/12/24 07:22:00;;;;;;;2.35;0.60;;;8.40;74.80;;;;;;5044996;28;20037;-70
2020/12/24 07:24:26;;;;;;;2.35;0.40;;;8.40;74.50;;;;;;5028771;28;20296;-70
2020/12/24 07:27:00;;;;;;;1.05;0.40;;;8.30;74.70;;;;;;5043399;28;20044;-70
2020/12/24 07:29:27;;;;;;;1.65;0.50;;;8.20;76.10;;;;;;5043521;28;20113;-70
2020/12/24 07:31:53;;;;;;;1.08;0.47;;;8.30;76.10;;;;;;5026881;28;20037;-70
2020/12/24 07:34:29;;;;;;;1.25;0.40;;;8.30;75.60;;;;;;5043163;28;20103;-70
2020/12/24 07:36:55;;;;;;;0.85;0.40;;;8.00;75.00;;;;;;5046153;28;20056;-69
2020/12/24 07:39:21;;;;;;;0.50;0.45;;;7.90;74.70;;;;;;5043591;28;20041;-70
2020/12/24 07:41:46;;;;;;;1.65;0.50;;;8.10;74.90;;;;;;5043410;28;20064;-69
2020/12/24 07:44:13;;;;;;;0.85;0.40;;;8.20;74.40;;;;;;5044387;28;20325;-69
2020/12/24 07:46:38;;;;;;;0.70;0.40;;;8.10;74.10;;;;;;5042767;28;20056;-70
2020/12/24 07:49:04;;;;;;;1.92;0.40;;;8.20;74.10;;;;;;5042835;28;20025;-68
2020/12/24 07:51:31;;;;;;;1.58;0.40;;;8.20;73.80;;;;;;5045839;28;20064;-69
2020/12/24 07:54:06;;;;;;;1.00;0.50;;;8.30;74.10;;;;;;5043018;28;20259;-69
2020/12/24 07:56:33;;;;;;;1.25;0.50;;;8.20;74.10;;;;;;5043777;28;20100;-70
2020/12/24 07:59:00;;;;;;;1.73;0.40;;;8.30;74.10;;;;;;5026500;28;20065;-70
2020/12/24 08:01:26;;;;;;;1.08;0.47;;;8.30;74.40;;;;;;5044101;28;20097;-70
2020/12/24 08:04:02;;;;;;;0.95;0.40;;;8.30;74.40;;;;;;5045298;28;20201;-72
2020/12/24 08:06:28;;;;;;;1.30;0.50;;;8.30;73.00;;;;;;5044582;28;20116;-70
2020/12/24 08:09:06;;;;;;;1.48;0.50;;;8.30;74.00;;;;;;5042809;28;20030;-68
2020/12/24 08:11:32;;;;;;;2.13;0.57;;;8.30;73.40;;;;;;5044267;28;20048;-70
2020/12/24 08:13:58;;;;;;;1.20;0.40;;;8.30;73.60;;;;;;5043881;28;20029;-69
2020/12/24 08:16:23;;;;;;;1.10;0.40;;;8.30;72.50;;;;;;5043793;28;20096;-70
2020/12/24 08:18:49;;;;;;;1.58;0.50;;;8.30;72.60;;;;;;5027685;28;20029;-69
2020/12/24 08:21:26;;;;;;;2.83;0.60;;;8.40;73.60;;;;;;5025955;28;20038;-70
2020/12/24 08:23:53;;;;;;;4.05;0.63;;;8.30;72.60;;;;;;5026318;28;20102;-69
2020/12/24 08:26:19;;;;;;;1.02;0.68;;;8.40;73.10;;;;;;5042522;28;20213;-68
2020/12/24 08:28:51;;;;;;;3.55;0.60;;;8.40;72.90;;;;;;5043675;28;20033;-69
2020/12/24 08:31:17;;;;;;;2.97;0.80;;;8.40;73.40;;;;;;5043437;28;20057;-68
2020/12/24 08:33:42;;;;;;;2.17;0.60;;;8.40;72.40;;;;;;5045224;28;20028;-69
2020/12/24 08:36:12;;;;;;;1.52;0.60;;;8.40;71.80;;;;;;5026044;28;20084;-68
2020/12/24 08:38:38;;;;;;;1.77;0.60;;;8.40;72.00;;;;;;5043344;28;20033;-68
2020/12/24 08:41:03;;;;;;;2.00;0.60;;;8.40;72.30;;;;;;5043438;28;20249;-68
2020/12/24 08:43:29;;;;;;;1.77;0.68;;;8.30;71.80;;;;;;5043280;28;20029;-68
2020/12/24 08:45:55;;;;;;;1.95;0.63;;;8.50;72.20;;;;;;5043934;28;20067;-69
2020/12/24 08:48:34;;;;;;;1.92;0.45;;;8.50;71.70;;;;;;5043591;28;20068;-69
2020/12/24 08:51:00;;;;;;;1.13;0.60;;;8.50;72.10;;;;;;5042796;28;20103;-68
2020/12/24 08:53:28;;;;;;;1.00;0.60;;;8.50;71.60;;;;;;5041564;28;20268;-68
2020/12/24 08:55:56;;;;;;;1.70;0.50;;;8.50;71.80;;;;;;5042543;28;20253;-67
2020/12/24 08:58:22;;;;;;;0.77;0.40;;;8.40;70.70;;;;;;5042966;28;20041;-68
2020/12/24 09:00:48;;;;;;;1.70;0.60;;;8.50;72.50;;;;;;5044687;28;20095;-69
2020/12/24 09:03:24;;;;;;;1.88;0.50;;;8.60;71.20;;;;;;5042025;28;20042;-70
2020/12/24 09:05:49;;;;;;;1.85;0.45;;;8.60;71.90;;;;;;5043369;28;20041;-70
2020/12/24 09:08:25;;;;;;;1.42;0.60;;;8.60;72.10;;;;;;5042751;28;20244;-68
2020/12/24 09:10:51;;;;;;;1.67;0.40;;;8.60;71.10;;;;;;5042851;28;20109;-69
2020/12/24 09:13:17;;;;;;;1.25;0.50;;;8.40;70.40;;;;;;5042971;28;20048;-68
2020/12/24 09:15:43;;;;;;;2.13;0.43;;;8.40;71.70;;;;;;5044263;28;20029;-69
2020/12/24 09:18:08;;;;;;;0.75;0.38;;;8.40;72.50;;;;;;5042791;28;20260;-69
2020/12/24 09:20:34;;;;;;;0.95;0.50;;;8.60;72.50;;;;;;5042574;28;20037;-68
2020/12/24 09:23:01;;;;;;;1.90;0.85;;;8.60;71.60;;;;;;5042769;28;20049;-69
2020/12/24 09:25:34;;;;;;;0.63;0.40;;;8.60;72.10;;;;;;5042188;28;20037;-68
2020/12/24 09:28:00;;;;;;;1.55;0.40;;;8.60;72.00;;;;;;5042412;28;20332;-68
2020/12/24 09:30:26;;;;;;;0.95;0.45;;;8.50;70.70;;;;;;5026834;28;20029;-68
2020/12/24 09:32:55;;;;;;;1.52;0.35;;;8.50;71.60;;;;;;5041813;28;20088;-68
2020/12/24 09:35:22;;;;;;;1.75;0.40;;;8.50;71.70;;;;;;5041905;28;20041;-67
2020/12/24 09:37:47;;;;;;;1.38;0.45;;;8.60;71.40;;;;;;5042192;28;20036;-67
2020/12/24 09:40:13;;;;;;;1.60;0.60;;;8.60;70.80;;;;;;5042153;28;20369;-67
2020/12/24 09:42:38;;;;;;;0.82;0.40;;;8.60;70.50;;;;;;5044195;28;20129;-69
2020/12/24 09:45:04;;;;;;;0.95;0.40;;;8.60;69.90;;;;;;5042791;28;20038;-68
2020/12/24 09:47:29;;;;;;;1.70;0.50;;;8.60;70.80;;;;;;5042523;28;20065;-68
2020/12/24 09:49:55;;;;;;;1.08;0.45;;;8.70;70.30;;;;;;5042369;28;20038;-68
2020/12/24 09:52:21;;;;;;;0.98;0.50;;;8.60;70.30;;;;;;5042196;28;20045;-67
2020/12/24 09:54:46;;;;;;;1.80;0.52;;;8.60;71.30;;;;;;5043671;28;20080;-68
2020/12/24 09:57:12;;;;;;;1.88;0.50;;;8.70;70.70;;;;;;5041977;28;20062;-68
2020/12/24 09:59:37;;;;;;;0.70;0.50;;;8.70;70.60;;;;;;5042074;28;20042;-68
2020/12/24 10:02:03;;;;;;;2.75;0.60;;;8.80;70.90;;;;;;5042108;28;20034;-68
2020/12/24 10:04:28;;;;;;;2.17;0.60;;;8.70;69.50;;;;;;5041231;28;20026;-70
2020/12/24 10:06:54;;;;;;;1.77;0.50;;;8.90;71.80;;;;;;5043980;28;20040;-68
2020/12/24 10:09:19;;;;;;;2.13;0.68;;;8.80;70.40;;;;;;5042056;28;20044;-69
2020/12/24 10:11:46;;;;;;;1.30;0.70;;;8.90;70.50;;;;;;5040971;28;20244;-68
2020/12/24 10:14:12;;;;;;;0.77;0.50;;;9.00;69.90;;;;;;5042047;28;20060;-68
2020/12/24 10:16:37;;;;;;;1.70;0.55;;;9.10;70.10;;;;;;5042006;28;20041;-67
2020/12/24 10:19:03;;;;;;;1.05;0.47;;;9.10;70.50;;;;;;5041643;28;20040;-66
2020/12/24 10:21:29;;;;;;;1.33;0.50;;;9.10;68.70;;;;;;5044087;28;20070;-67
2020/12/24 10:23:54;;;;;;;0.93;0.50;;;9.20;69.70;;;;;;5042112;28;20217;-67
2020/12/24 10:26:20;;;;;;;1.77;0.40;;;9.10;68.90;;;;;;5041953;28;20041;-67
2020/12/24 10:28:46;;;;;;;1.52;0.60;;;9.10;70.40;;;;;;5040749;28;20206;-67
2020/12/24 10:31:12;;;;;;;1.25;0.40;;;9.00;69.00;;;;;;5042134;28;20025;-66
2020/12/24 10:33:37;;;;;;;1.27;0.50;;;8.90;67.50;;;;;;5043651;28;20021;-67
2020/12/24 10:36:03;;;;;;;2.60;0.60;;;9.10;69.70;;;;;;5041926;28;20025;-67
2020/12/24 10:38:29;;;;;;;1.10;0.60;;;9.30;68.40;;;;;;5041589;28;20406;-67
2020/12/24 10:40:55;;;;;;;1.08;0.50;;;9.30;68.20;;;;;;5041883;28;20033;-69
2020/12/24 10:43:20;;;;;;;1.08;0.55;;;9.30;68.40;;;;;;5041786;28;20186;-67
2020/12/24 10:45:47;;;;;;;1.70;0.47;;;9.40;67.90;;;;;;5046006;28;20316;-66
2020/12/24 10:48:12;;;;;;;1.33;0.50;;;9.40;67.50;;;;;;5044682;28;20037;-68
2020/12/24 10:50:38;;;;;;;1.50;0.70;;;9.40;67.10;;;;;;5045034;28;20372;-67
2020/12/24 10:53:03;;;;;;;1.88;0.50;;;9.40;68.40;;;;;;5045350;28;20042;-67
2020/12/24 10:55:29;;;;;;;1.88;0.60;;;9.40;68.20;;;;;;5045110;28;20033;-67
2020/12/24 10:57:54;;;;;;;1.65;0.63;;;9.40;67.30;;;;;;5046533;28;20049;-68
2020/12/24 11:00:20;;;;;;;1.00;0.63;;;9.40;66.60;;;;;;5045039;28;20038;-68
2020/12/24 11:02:45;;;;;;;2.67;0.60;;;9.50;67.30;;;;;;5045432;28;20246;-67
2020/12/24 11:05:11;;;;;;;2.20;0.60;;;9.50;66.30;;;;;;5045035;28;20085;-67
2020/12/24 11:07:37;;;;;;;1.77;0.60;;;9.60;67.30;;;;;;5044994;28;20030;-68
2020/12/24 11:10:03;;;;;;;1.42;0.50;;;9.70;66.20;;;;;;5044876;28;20052;-67
2020/12/24 11:12:28;;;;;;;0.95;0.60;;;9.70;66.50;;;;;;5046658;28;20045;-68
2020/12/24 11:14:54;;;;;;;3.33;0.60;;;9.90;66.80;;;;;;5045308;28;20041;-68
2020/12/24 11:17:19;;;;;;;1.23;0.52;;;10.30;65.20;;;;;;5044754;28;20049;-68
2020/12/24 11:19:45;;;;;;;0.82;0.40;;;10.30;65.00;;;;;;5044734;28;20040;-69
2020/12/24 11:22:11;;;;;;;1.20;0.50;;;10.30;65.40;;;;;;5044602;28;20037;-70
2020/12/24 11:24:36;;;;;;;2.10;0.70;;;10.30;63.80;;;;;;5046529;28;20083;-68
2020/12/24 11:27:02;;;;;;;2.50;0.70;;;11.00;62.50;;;;;;5045076;28;20030;-69
2020/12/24 11:29:27;;;;;;;1.52;0.70;;;11.60;59.70;;;;;;5044337;28;20229;-69
2020/12/24 11:31:54;;;;;;;4.22;0.60;;;11.90;59.00;;;;;;5044463;28;20041;-68
2020/12/24 11:34:19;;;;;;;1.58;0.68;;;12.20;58.90;;;;;;5043271;28;20060;-69
2020/12/24 11:36:45;;;;;;;2.00;0.60;;;12.20;58.30;;;;;;5046246;28;20055;-68
2020/12/24 11:39:11;;;;;;;1.95;0.85;;;12.30;58.40;;;;;;5044851;28;20044;-68
2020/12/24 11:41:36;;;;;;;2.92;0.50;;;12.40;57.60;;;;;;5044508;28;20038;-69
2020/12/24 11:44:02;;;;;;;2.85;0.65;;;12.30;56.70;;;;;;5043332;28;20320;-69
2020/12/24 11:46:27;;;;;;;2.85;0.73;;;12.20;56.20;;;;;;5044249;28;20204;-68
2020/12/24 11:48:54;;;;;;;2.22;0.60;;;12.10;56.00;;;;;;5045956;28;20253;-68
2020/12/24 11:51:20;;;;;;;1.63;0.50;;;12.00;56.70;;;;;;5044351;28;20037;-69
2020/12/24 11:53:47;;;;;;;2.33;0.60;;;11.90;56.10;;;;;;5044197;28;20044;-70
2020/12/24 11:56:16;;;;;;;1.17;0.50;;;11.90;56.80;;;;;;5043189;28;20107;-69
2020/12/24 11:58:43;;;;;;;1.90;0.70;;;11.90;56.00;;;;;;5043810;28;20225;-68
2020/12/24 12:01:08;;;;;;;1.50;0.57;;;11.80;55.30;;;;;;5043934;28;20036;-68
2020/12/24 12:03:34;;;;;;;1.80;0.73;;;11.80;56.10;;;;;;5045449;28;20021;-69
2020/12/24 12:05:59;;;;;;;2.47;0.55;;;11.80;55.80;;;;;;5044221;28;20229;-69
2020/12/24 12:08:25;;;;;;;3.08;0.65;;;11.80;55.70;;;;;;5044043;28;20052;-69
2020/12/24 12:10:50;;;;;;;2.40;0.70;;;11.60;54.00;;;;;;5043859;28;20199;-69
2020/12/24 12:13:16;;;;;;;1.58;0.60;;;11.60;54.60;;;;;;5042846;28;20213;-69
2020/12/24 12:15:42;;;;;;;1.25;0.50;;;11.50;56.20;;;;;;5045494;28;20026;-69
2020/12/24 12:18:07;;;;;;;1.20;0.60;;;11.50;56.10;;;;;;5042716;28;20037;-69
2020/12/24 12:20:34;;;;;;;3.30;0.70;;;11.70;55.70;;;;;;5043899;28;20335;-69
2020/12/24 12:22:59;;;;;;;3.78;0.70;;;11.80;55.90;;;;;;5042582;28;20202;-68
2020/12/24 12:25:25;;;;;;;2.10;0.82;;;12.00;55.50;;;;;;5042339;28;20074;-70
2020/12/24 12:27:50;;;;;;;2.45;0.70;;;12.20;55.20;;;;;;5045196;28;20370;-69
2020/12/24 12:30:16;;;;;;;1.73;0.60;;;12.30;54.60;;;;;;5043567;28;20087;-68
2020/12/24 12:32:41;;;;;;;2.60;0.70;;;12.30;53.50;;;;;;5043560;28;20041;-68
2020/12/24 12:35:07;;;;;;;1.92;0.73;;;12.10;53.70;;;;;;5043743;28;20084;-71
2020/12/24 12:37:34;;;;;;;1.92;0.60;;;11.90;53.30;;;;;;5042968;28;20045;-69
2020/12/24 12:40:00;;;;;;;3.63;0.65;;;11.80;52.30;;;;;;5041772;28;20029;-73
2020/12/24 12:42:25;;;;;;;1.33;0.50;;;11.60;54.70;;;;;;5044690;28;20026;-73
2020/12/24 12:44:51;;;;;;;2.33;0.65;;;11.50;53.60;;;;;;5042924;28;20034;-75
2020/12/24 12:47:16;;;;;;;1.65;0.52;;;11.50;53.60;;;;;;5042153;28;20089;-76
2020/12/24 12:49:42;;;;;;;1.55;0.60;;;11.40;54.00;;;;;;5042855;28;20040;-75